createdAt,value
2018-03-11T00:03:22.428Z,7.88
2018-03-11T00:05:50.024Z,7.87
2018-03-11T00:08:17.585Z,7.91
2018-03-11T00:10:45.185Z,7.82
2018-03-11T00:13:12.797Z,7.72
2018-03-11T00:15:40.356Z,7.72
2018-03-11T00:18:08.174Z,7.72
2018-03-11T00:20:35.865Z,7.69
2018-03-11T00:23:03.440Z,7.67
2018-03-11T00:25:31.015Z,7.74
2018-03-11T00:27:58.654Z,7.71
2018-03-11T00:30:26.214Z,7.68
2018-03-11T00:32:53.767Z,7.71
2018-03-11T00:35:21.350Z,7.70
2018-03-11T00:37:49.124Z,7.71
2018-03-11T00:40:16.681Z,7.74
2018-03-11T00:42:44.261Z,7.71
2018-03-11T00:45:11.833Z,7.65
2018-03-11T00:47:39.390Z,7.58
2018-03-11T00:50:06.978Z,7.65
2018-03-11T00:52:34.538Z,7.71
2018-03-11T00:55:02.087Z,7.78
2018-03-11T00:57:29.683Z,7.80
2018-03-11T00:59:57.284Z,7.75
2018-03-11T01:02:24.950Z,7.67
2018-03-11T01:04:52.547Z,7.69
2018-03-11T01:07:20.303Z,7.65
2018-03-11T01:09:47.855Z,7.64
2018-03-11T01:12:15.456Z,7.66
2018-03-11T01:14:43.020Z,7.67
2018-03-11T01:17:10.578Z,7.65
2018-03-11T01:19:38.183Z,7.67
2018-03-11T01:22:05.733Z,7.66
2018-03-11T01:24:33.496Z,7.63
2018-03-11T01:27:01.180Z,7.65
2018-03-11T01:29:28.742Z,7.66
2018-03-11T01:31:56.292Z,7.58
2018-03-11T01:34:23.911Z,7.52
2018-03-11T01:36:51.478Z,7.55
2018-03-11T01:39:19.083Z,7.60
2018-03-11T01:41:46.675Z,7.59
2018-03-11T01:44:14.389Z,7.57
2018-03-11T01:46:41.966Z,7.42
2018-03-11T01:49:09.731Z,7.44
2018-03-11T01:51:37.304Z,7.40
2018-03-11T01:54:04.868Z,7.52
2018-03-11T01:56:32.485Z,7.47
2018-03-11T01:59:00.045Z,7.55
2018-03-11T02:01:27.630Z,7.59
2018-03-11T02:03:55.269Z,7.63
2018-03-11T02:06:22.851Z,7.72
2018-03-11T02:08:50.418Z,7.76
2018-03-11T02:11:18.078Z,7.72
2018-03-11T02:13:45.927Z,7.73
2018-03-11T02:16:13.575Z,7.67
2018-03-11T02:18:41.267Z,7.72
2018-03-11T02:21:17.490Z,7.63
2018-03-11T02:23:45.131Z,7.64
2018-03-11T02:26:12.701Z,7.57
2018-03-11T02:28:40.258Z,7.60
2018-03-11T02:31:07.959Z,7.59
2018-03-11T02:33:35.542Z,7.64
2018-03-11T02:36:03.110Z,7.66
2018-03-11T02:38:30.706Z,7.65
2018-03-11T02:40:58.260Z,7.54
2018-03-11T02:43:25.818Z,7.44
2018-03-11T02:45:53.431Z,7.40
2018-03-11T02:48:20.983Z,7.39
2018-03-11T02:50:48.553Z,7.42
2018-03-11T02:53:16.171Z,7.42
2018-03-11T02:55:43.961Z,7.33
2018-03-11T02:58:11.506Z,7.29
2018-03-11T03:00:39.293Z,7.27
2018-03-11T03:03:06.844Z,7.27
2018-03-11T03:05:34.411Z,7.25
2018-03-11T03:08:02.013Z,7.39
2018-03-11T03:10:29.563Z,7.43
2018-03-11T03:12:57.142Z,7.51
2018-03-11T03:15:24.755Z,7.49
2018-03-11T03:17:52.322Z,7.48
2018-03-11T03:20:19.966Z,7.46
2018-03-11T03:22:47.651Z,7.40
2018-03-11T03:25:15.313Z,7.37
2018-03-11T03:27:42.942Z,7.32
2018-03-11T03:30:10.640Z,7.30
2018-03-11T03:32:38.300Z,7.29
2018-03-11T03:35:05.868Z,7.23
2018-03-11T03:37:33.488Z,7.16
2018-03-11T03:40:01.090Z,7.12
2018-03-11T03:42:28.661Z,7.05
2018-03-11T03:44:56.268Z,7.05
2018-03-11T03:47:23.832Z,7.08
2018-03-11T03:49:51.402Z,7.09
2018-03-11T03:52:18.996Z,7.10
2018-03-11T03:54:46.643Z,7.09
2018-03-11T03:57:14.211Z,7.00
2018-03-11T03:59:41.805Z,6.98
2018-03-11T04:02:09.380Z,7.05
2018-03-11T04:04:36.946Z,7.10
2018-03-11T04:07:10.434Z,7.02
2018-03-11T04:09:38.007Z,7.01
2018-03-11T04:12:05.587Z,7.02
2018-03-11T04:14:33.197Z,7.01
2018-03-11T04:17:00.924Z,7.05
2018-03-11T04:19:28.530Z,7.07
2018-03-11T04:21:56.221Z,7.13
2018-03-11T04:24:23.904Z,7.07
2018-03-11T04:26:51.467Z,7.00
2018-03-11T04:29:19.068Z,6.88
2018-03-11T04:31:46.676Z,6.81
2018-03-11T04:34:14.236Z,6.69
2018-03-11T04:36:42.217Z,6.66
2018-03-11T04:39:09.792Z,6.49
2018-03-11T04:41:37.350Z,6.44
2018-03-11T04:44:04.989Z,6.34
2018-03-11T04:46:32.543Z,6.28
2018-03-11T04:49:00.098Z,6.21
2018-03-11T04:51:27.704Z,6.14
2018-03-11T04:53:55.437Z,6.05
2018-03-11T04:56:23.087Z,5.99
2018-03-11T04:58:50.695Z,5.94
2018-03-11T05:01:18.257Z,5.90
2018-03-11T05:03:45.846Z,5.82
2018-03-11T05:06:13.446Z,5.90
2018-03-11T05:08:41.003Z,5.83
2018-03-11T05:11:08.567Z,5.93
2018-03-11T05:13:36.173Z,5.95
2018-03-11T05:16:03.796Z,5.99
2018-03-11T05:18:31.353Z,6.10
2018-03-11T05:20:58.975Z,7.23
2018-03-11T05:23:26.659Z,9.30
2018-03-11T05:25:54.224Z,11.38
2018-03-11T05:28:21.909Z,12.06
2018-03-11T05:30:49.545Z,11.58
2018-03-11T05:33:17.225Z,12.00
2018-03-11T05:35:44.822Z,13.09
2018-03-11T05:38:12.390Z,13.98
2018-03-11T05:40:39.959Z,14.45
2018-03-11T05:43:07.551Z,14.40
2018-03-11T05:45:35.109Z,14.19
2018-03-11T05:48:02.690Z,14.02
2018-03-11T05:50:30.293Z,14.68
2018-03-11T05:52:57.895Z,16.18
2018-03-11T05:55:25.454Z,17.52
2018-03-11T05:57:53.047Z,19.03
2018-03-11T06:00:20.688Z,19.67
2018-03-11T06:02:48.253Z,20.75
2018-03-11T06:05:15.852Z,20.34
2018-03-11T06:07:43.408Z,19.26
2018-03-11T06:10:10.965Z,18.17
2018-03-11T06:12:38.784Z,17.29
2018-03-11T06:15:06.335Z,16.55
2018-03-11T06:17:33.887Z,15.86
2018-03-11T06:20:01.511Z,15.07
2018-03-11T06:22:29.082Z,14.62
2018-03-11T06:24:56.730Z,13.89
2018-03-11T06:27:24.354Z,13.67
2018-03-11T06:29:51.926Z,13.46
2018-03-11T06:32:19.506Z,13.41
2018-03-11T06:34:47.185Z,13.61
2018-03-11T06:37:14.806Z,15.13
2018-03-11T06:39:42.455Z,16.63
2018-03-11T06:42:10.049Z,17.27
2018-03-11T06:44:37.610Z,17.24
2018-03-11T06:47:05.171Z,17.30
2018-03-11T06:49:32.758Z,18.10
2018-03-11T06:52:00.306Z,19.28
2018-03-11T06:54:27.867Z,20.96
2018-03-11T06:56:55.486Z,22.55
2018-03-11T06:59:23.053Z,23.54
2018-03-11T07:01:50.615Z,23.79
2018-03-11T07:04:18.228Z,24.90
2018-03-11T07:06:45.801Z,25.62
2018-03-11T07:09:13.346Z,25.22
2018-03-11T07:11:40.936Z,25.88
2018-03-11T07:14:08.512Z,25.43
2018-03-11T07:16:36.097Z,25.40
2018-03-11T07:19:03.687Z,25.72
2018-03-11T07:21:31.264Z,26.29
2018-03-11T07:23:58.846Z,25.70
2018-03-11T07:26:26.433Z,25.73
2018-03-11T07:28:54.164Z,26.21
2018-03-11T07:31:21.828Z,26.29
2018-03-11T07:33:49.484Z,26.32
2018-03-11T07:36:17.051Z,26.91
2018-03-11T07:38:44.651Z,26.98
2018-03-11T07:41:12.273Z,27.03
2018-03-11T07:43:39.848Z,27.14
2018-03-11T07:46:07.442Z,28.03
2018-03-11T07:48:35.008Z,27.84
2018-03-11T07:51:02.564Z,28.68
2018-03-11T07:53:30.175Z,28.81
2018-03-11T07:55:57.736Z,28.73
2018-03-11T07:58:25.288Z,28.67
2018-03-11T08:00:52.900Z,28.23
2018-03-11T08:03:20.472Z,29.56
2018-03-11T08:05:48.036Z,29.23
2018-03-11T08:08:15.636Z,28.70
2018-03-11T08:10:43.216Z,29.41
2018-03-11T08:13:10.780Z,29.53
2018-03-11T08:15:38.385Z,29.71
2018-03-11T08:18:05.955Z,29.53
2018-03-11T08:20:33.525Z,29.55
2018-03-11T08:23:01.181Z,28.82
2018-03-11T08:25:28.822Z,29.49
2018-03-11T08:27:56.387Z,28.42
2018-03-11T08:30:23.986Z,27.35
2018-03-11T08:32:51.558Z,28.18
2018-03-11T08:35:19.109Z,29.37
2018-03-11T08:37:46.708Z,29.83
2018-03-11T08:40:14.275Z,29.84
2018-03-11T08:42:41.839Z,30.27
2018-03-11T08:45:09.516Z,30.79
2018-03-11T08:47:37.085Z,30.57
2018-03-11T08:50:04.656Z,29.87
2018-03-11T08:52:32.235Z,30.68
2018-03-11T08:54:59.780Z,31.45
2018-03-11T08:57:27.335Z,31.31
2018-03-11T08:59:54.930Z,29.86
2018-03-11T09:02:22.474Z,29.76
2018-03-11T09:04:50.036Z,30.51
2018-03-11T09:07:17.616Z,30.07
2018-03-11T09:09:45.178Z,30.66
2018-03-11T09:12:12.750Z,31.38
2018-03-11T09:14:40.350Z,31.03
2018-03-11T09:17:07.917Z,31.02
2018-03-11T09:19:35.496Z,30.72
2018-03-11T09:22:03.101Z,31.27
2018-03-11T09:24:30.793Z,31.63
2018-03-11T09:26:58.453Z,31.25
2018-03-11T09:29:26.044Z,29.95
2018-03-11T09:31:53.608Z,30.31
2018-03-11T09:34:21.178Z,31.43
2018-03-11T09:36:48.767Z,31.56
2018-03-11T09:39:16.374Z,32.10
2018-03-11T09:41:44.046Z,31.98
2018-03-11T09:44:11.631Z,31.19
2018-03-11T09:46:39.190Z,31.06
2018-03-11T09:49:06.773Z,31.75
2018-03-11T09:51:34.366Z,31.79
2018-03-11T09:54:01.919Z,32.34
2018-03-11T09:56:29.459Z,33.01
2018-03-11T09:58:57.071Z,31.62
2018-03-11T10:01:24.716Z,31.01
2018-03-11T10:03:52.371Z,31.10
2018-03-11T10:06:19.964Z,30.89
2018-03-11T10:08:47.530Z,30.63
2018-03-11T10:11:15.098Z,30.30
2018-03-11T10:13:42.694Z,29.92
2018-03-11T10:16:10.248Z,28.92
2018-03-11T10:18:37.800Z,28.60
2018-03-11T10:21:05.386Z,28.87
2018-03-11T10:23:32.920Z,30.77
2018-03-11T10:26:00.467Z,31.61
2018-03-11T10:28:28.043Z,31.20
2018-03-11T10:30:55.591Z,30.37
2018-03-11T10:33:23.153Z,31.55
2018-03-11T10:35:50.950Z,32.49
2018-03-11T10:38:18.491Z,32.36
2018-03-11T10:40:46.049Z,32.90
2018-03-11T10:43:13.655Z,32.48
2018-03-11T10:45:41.416Z,30.81
2018-03-11T10:48:09.008Z,30.74
2018-03-11T10:50:36.684Z,30.66
2018-03-11T10:53:04.225Z,29.68
2018-03-11T10:55:31.772Z,29.81
2018-03-11T10:57:59.354Z,28.85
2018-03-11T11:00:27.900Z,27.25
2018-03-11T11:03:01.348Z,26.71
2018-03-11T11:05:29.059Z,26.96
2018-03-11T11:07:56.618Z,27.59
2018-03-11T11:10:24.204Z,28.05
2018-03-11T11:12:51.751Z,29.26
2018-03-11T11:15:19.312Z,30.24
2018-03-11T11:17:46.920Z,29.65
2018-03-11T11:20:14.484Z,29.31
2018-03-11T11:22:42.042Z,29.70
2018-03-11T11:25:09.641Z,29.99
2018-03-11T11:27:37.325Z,29.73
2018-03-11T11:30:04.893Z,29.98
2018-03-11T11:32:32.561Z,29.66
2018-03-11T11:35:00.101Z,29.41
2018-03-11T11:37:27.647Z,27.46
2018-03-11T11:39:55.228Z,26.93
2018-03-11T11:42:22.777Z,25.65
2018-03-11T11:44:50.336Z,26.21
2018-03-11T11:47:18.026Z,26.74
2018-03-11T11:49:45.589Z,26.72
2018-03-11T11:52:13.143Z,25.47
2018-03-11T11:54:40.727Z,25.37
2018-03-11T11:57:08.300Z,25.51
2018-03-11T11:59:35.849Z,25.76
2018-03-11T12:02:03.458Z,26.21
2018-03-11T12:04:31.029Z,26.96
2018-03-11T12:06:58.586Z,27.22
2018-03-11T12:09:26.190Z,27.84
2018-03-11T12:11:53.770Z,28.23
2018-03-11T12:14:21.332Z,28.07
2018-03-11T12:16:48.931Z,28.49
2018-03-11T12:19:16.492Z,29.41
2018-03-11T12:21:44.041Z,28.80
2018-03-11T12:24:11.698Z,28.84
2018-03-11T12:26:39.371Z,27.78
2018-03-11T12:29:06.945Z,29.78
2018-03-11T12:31:34.670Z,30.43
2018-03-11T12:34:02.384Z,29.52
2018-03-11T12:36:30.010Z,31.20
2018-03-11T12:38:57.602Z,30.57
2018-03-11T12:41:25.164Z,29.09
2018-03-11T12:43:52.724Z,28.50
2018-03-11T12:46:20.360Z,27.25
2018-03-11T12:48:47.921Z,27.27
2018-03-11T12:51:15.488Z,27.22
2018-03-11T12:53:43.141Z,27.65
2018-03-11T12:56:10.694Z,27.55
2018-03-11T12:58:38.239Z,27.71
2018-03-11T13:01:05.873Z,27.81
2018-03-11T13:03:33.475Z,28.91
2018-03-11T13:06:01.131Z,30.91
2018-03-11T13:08:28.701Z,31.78
2018-03-11T13:10:56.305Z,31.50
2018-03-11T13:13:23.867Z,32.01
2018-03-11T13:15:51.459Z,32.29
2018-03-11T13:18:19.236Z,30.88
2018-03-11T13:20:58.605Z,30.72
2018-03-11T13:23:26.153Z,30.61
2018-03-11T13:25:53.728Z,30.27
2018-03-11T13:28:33.203Z,29.29
2018-03-11T13:31:00.780Z,28.16
2018-03-11T13:33:40.212Z,29.09
2018-03-11T13:36:07.928Z,29.72
2018-03-11T13:38:47.353Z,29.78
2018-03-11T13:41:15.086Z,31.52
2018-03-11T13:43:42.653Z,32.03
2018-03-11T13:46:22.089Z,32.02
2018-03-11T13:48:49.654Z,31.46
2018-03-11T13:51:29.069Z,30.42
2018-03-11T13:53:56.730Z,29.79
2018-03-11T13:56:24.283Z,28.07
2018-03-11T13:58:51.885Z,27.32
2018-03-11T14:01:19.456Z,26.43
2018-03-11T14:03:47.195Z,25.77
2018-03-11T14:06:15.283Z,25.19
2018-03-11T14:08:43.355Z,24.41
2018-03-11T14:11:10.919Z,24.09
2018-03-11T14:13:38.674Z,23.69
2018-03-11T14:16:06.227Z,23.57
2018-03-11T14:18:33.997Z,23.49
2018-03-11T14:21:01.920Z,23.18
2018-03-11T14:23:29.466Z,22.87
2018-03-11T14:25:57.031Z,22.65
2018-03-11T14:28:24.642Z,22.61
2018-03-11T14:30:52.208Z,22.57
2018-03-11T14:33:20.189Z,22.34
2018-03-11T14:35:47.833Z,22.20
2018-03-11T14:38:16.514Z,22.15
2018-03-11T14:40:44.403Z,22.00
2018-03-11T14:43:12.700Z,21.83
2018-03-11T14:45:41.140Z,21.88
2018-03-11T14:48:09.146Z,21.88
2018-03-11T14:50:36.805Z,21.89
2018-03-11T14:53:04.655Z,21.76
2018-03-11T14:55:32.241Z,21.76
2018-03-11T14:58:00.082Z,21.65
2018-03-11T15:00:27.688Z,21.43
2018-03-11T15:02:55.286Z,21.32
2018-03-11T15:05:22.893Z,21.15
2018-03-11T15:07:51.544Z,21.14
2018-03-11T15:10:19.413Z,21.08
2018-03-11T15:12:47.832Z,20.94
2018-03-11T15:15:15.386Z,20.90
2018-03-11T15:17:43.031Z,20.80
2018-03-11T15:20:10.615Z,20.68
2018-03-11T15:22:38.208Z,20.60
2018-03-11T15:25:05.782Z,20.54
2018-03-11T15:27:33.392Z,20.45
2018-03-11T15:30:01.238Z,20.34
2018-03-11T15:32:29.041Z,20.23
2018-03-11T15:34:57.090Z,20.11
2018-03-11T15:37:24.697Z,19.95
2018-03-11T15:39:52.375Z,19.82
2018-03-11T15:42:20.644Z,19.79
2018-03-11T15:44:48.523Z,19.56
2018-03-11T15:47:16.276Z,19.58
2018-03-11T15:49:44.482Z,19.56
2018-03-11T15:52:12.053Z,19.51
2018-03-11T15:54:39.910Z,19.41
2018-03-11T15:57:07.943Z,19.17
2018-03-11T15:59:35.926Z,19.10
2018-03-11T16:02:04.604Z,19.02
2018-03-11T16:04:33.375Z,18.95
2018-03-11T16:07:01.645Z,18.82
2018-03-11T16:09:29.854Z,18.59
2018-03-11T16:11:57.525Z,18.46
2018-03-11T16:14:25.687Z,18.36
2018-03-11T16:16:53.290Z,18.19
2018-03-11T16:19:21.651Z,18.05
2018-03-11T16:21:49.880Z,17.84
2018-03-11T16:24:28.280Z,17.75
2018-03-11T16:26:45.063Z,17.59
2018-03-11T16:29:12.621Z,17.40
2018-03-11T16:31:40.207Z,17.33
2018-03-11T16:34:08.158Z,17.14
2018-03-11T16:36:35.717Z,17.02
2018-03-11T16:39:03.427Z,16.82
2018-03-11T16:41:31.422Z,16.64
2018-03-11T16:43:59.419Z,16.41
2018-03-11T16:46:27.278Z,16.29
2018-03-11T16:48:55.824Z,16.09
2018-03-11T16:51:24.264Z,15.99
2018-03-11T16:53:51.961Z,15.83
2018-03-11T16:56:20.700Z,15.69
2018-03-11T16:58:48.536Z,15.50
2018-03-11T17:01:16.122Z,15.41
2018-03-11T17:03:43.728Z,15.26
2018-03-11T17:06:11.423Z,15.10
2018-03-11T17:08:39.689Z,15.12
2018-03-11T17:11:07.350Z,15.05
2018-03-11T17:13:35.666Z,14.98
2018-03-11T17:16:03.287Z,14.96
2018-03-11T17:18:31.875Z,14.82
2018-03-11T17:20:59.447Z,14.66
2018-03-11T17:23:27.413Z,14.52
2018-03-11T17:25:56.459Z,14.40
2018-03-11T17:28:24.700Z,14.25
2018-03-11T17:30:52.714Z,14.07
2018-03-11T17:33:21.158Z,13.91
2018-03-11T17:35:49.336Z,13.78
2018-03-11T17:38:17.567Z,13.65
2018-03-11T17:40:46.161Z,13.60
2018-03-11T17:43:14.265Z,13.54
2018-03-11T17:45:42.559Z,13.46
2018-03-11T17:48:10.819Z,13.37
2018-03-11T17:50:39.339Z,13.29
2018-03-11T17:53:07.497Z,13.27
2018-03-11T17:55:35.492Z,13.20
2018-03-11T17:58:03.932Z,13.16
2018-03-11T18:00:31.865Z,13.06
2018-03-11T18:02:59.507Z,13.01
2018-03-11T18:05:27.184Z,12.96
2018-03-11T18:07:56.094Z,13.01
2018-03-11T18:10:24.384Z,12.95
2018-03-11T18:12:51.958Z,12.80
2018-03-11T18:15:20.561Z,12.66
2018-03-11T18:17:48.388Z,12.58
2018-03-11T18:20:16.289Z,12.55
2018-03-11T18:22:43.886Z,12.39
2018-03-11T18:25:11.965Z,12.30
2018-03-11T18:27:39.997Z,12.22
2018-03-11T18:30:07.761Z,12.33
2018-03-11T18:32:35.390Z,12.21
2018-03-11T18:35:03.799Z,12.27
2018-03-11T18:37:32.292Z,12.32
2018-03-11T18:40:00.888Z,12.12
2018-03-11T18:42:29.166Z,12.15
2018-03-11T18:44:57.404Z,12.05
2018-03-11T18:47:25.466Z,12.08
2018-03-11T18:49:54.195Z,12.02
2018-03-11T18:52:22.594Z,11.83
2018-03-11T18:54:50.900Z,11.67
2018-03-11T18:57:18.823Z,11.56
2018-03-11T18:59:47.822Z,11.57
2018-03-11T19:02:16.100Z,11.48
2018-03-11T19:04:44.588Z,11.44
2018-03-11T19:07:13.104Z,11.51
2018-03-11T19:09:41.667Z,11.80
2018-03-11T19:12:09.629Z,11.84
2018-03-11T19:14:37.699Z,11.98
2018-03-11T19:17:05.910Z,12.02
2018-03-11T19:19:33.732Z,11.60
2018-03-11T19:22:02.359Z,11.48
2018-03-11T19:24:33.198Z,11.33
2018-03-11T19:27:00.769Z,11.15
2018-03-11T19:29:28.807Z,11.13
2018-03-11T19:31:56.960Z,10.96
2018-03-11T19:34:24.765Z,10.92
2018-03-11T19:36:52.319Z,10.64
2018-03-11T19:39:20.645Z,10.59
2018-03-11T19:41:48.727Z,10.57
2018-03-11T19:44:17.034Z,10.35
2018-03-11T19:46:44.671Z,10.25
2018-03-11T19:49:12.715Z,10.24
2018-03-11T19:51:40.829Z,10.17
2018-03-11T19:54:09.013Z,10.13
2018-03-11T19:56:36.975Z,9.97
2018-03-11T19:59:04.556Z,9.87
2018-03-11T20:01:32.827Z,9.82
2018-03-11T20:04:00.879Z,9.76
2018-03-11T20:06:28.439Z,9.61
2018-03-11T20:08:56.038Z,9.57
2018-03-11T20:11:23.595Z,9.51
2018-03-11T20:13:51.731Z,9.43
2018-03-11T20:16:19.364Z,9.43
2018-03-11T20:18:46.964Z,9.38
2018-03-11T20:21:14.706Z,9.29
2018-03-11T20:23:42.318Z,9.24
2018-03-11T20:26:10.228Z,9.22
2018-03-11T20:28:37.793Z,9.16
2018-03-11T20:31:05.393Z,9.08
2018-03-11T20:33:33.743Z,9.06
2018-03-11T20:36:01.338Z,9.02
2018-03-11T20:38:28.940Z,8.97
2018-03-11T20:40:56.515Z,8.88
2018-03-11T20:43:24.369Z,8.81
2018-03-11T20:45:51.982Z,8.85
2018-03-11T20:48:19.619Z,8.99
2018-03-11T20:50:47.117Z,8.99
2018-03-11T20:53:14.713Z,8.95
2018-03-11T20:55:42.283Z,8.93
2018-03-11T20:58:10.023Z,8.85
2018-03-11T21:00:37.697Z,8.80
2018-03-11T21:03:05.259Z,8.78
2018-03-11T21:05:32.823Z,8.72
2018-03-11T21:08:00.426Z,8.57
2018-03-11T21:10:27.973Z,8.56
2018-03-11T21:12:55.526Z,8.55
2018-03-11T21:15:23.254Z,8.44
2018-03-11T21:17:50.806Z,8.33
2018-03-11T21:20:18.383Z,8.33
2018-03-11T21:22:46.045Z,8.25
2018-03-11T21:25:13.719Z,8.32
2018-03-11T21:27:41.275Z,8.37
2018-03-11T21:30:08.868Z,8.39
2018-03-11T21:32:36.434Z,8.17
2018-03-11T21:35:04.122Z,8.22
2018-03-11T21:37:31.731Z,8.20
2018-03-11T21:39:59.291Z,8.23
2018-03-11T21:42:26.845Z,8.26
2018-03-11T21:44:54.564Z,8.29
2018-03-11T21:47:22.252Z,8.13
2018-03-11T21:49:49.829Z,8.17
2018-03-11T21:52:17.592Z,8.22
2018-03-11T21:54:45.234Z,8.11
2018-03-11T21:57:12.897Z,8.05
2018-03-11T21:59:40.480Z,8.02
2018-03-11T22:02:08.053Z,7.99
2018-03-11T22:04:35.615Z,7.93
2018-03-11T22:07:03.222Z,7.93
2018-03-11T22:09:30.792Z,7.86
2018-03-11T22:11:58.354Z,7.75
2018-03-11T22:14:25.960Z,7.78
2018-03-11T22:16:53.561Z,7.72
2018-03-11T22:19:21.252Z,7.63
2018-03-11T22:21:48.868Z,7.53
2018-03-11T22:24:16.420Z,7.50
2018-03-11T22:26:43.975Z,7.43
2018-03-11T22:29:11.625Z,7.38
2018-03-11T22:31:39.191Z,7.36
2018-03-11T22:34:06.751Z,7.32
2018-03-11T22:36:34.350Z,7.31
2018-03-11T22:39:01.915Z,7.31
2018-03-11T22:41:29.478Z,7.29
2018-03-11T22:43:57.087Z,7.25
2018-03-11T22:46:24.736Z,7.23
2018-03-11T22:48:52.281Z,7.13
2018-03-11T22:51:19.903Z,7.09
2018-03-11T22:53:47.460Z,7.00
2018-03-11T22:56:15.151Z,7.02
2018-03-11T22:58:42.818Z,7.01
2018-03-11T23:01:10.478Z,7.01
2018-03-11T23:03:38.057Z,6.98
2018-03-11T23:06:05.664Z,6.98
2018-03-11T23:08:33.267Z,6.95
2018-03-11T23:11:00.840Z,6.90
2018-03-11T23:13:28.449Z,6.89
2018-03-11T23:15:56.023Z,6.82
2018-03-11T23:18:23.705Z,6.79
2018-03-11T23:20:51.361Z,6.80
2018-03-11T23:23:18.927Z,6.75
2018-03-11T23:25:46.695Z,6.69
2018-03-11T23:28:14.304Z,6.68
2018-03-11T23:30:41.856Z,6.64
2018-03-11T23:33:09.423Z,6.59
2018-03-11T23:35:37.030Z,6.57
2018-03-11T23:38:04.816Z,6.54
2018-03-11T23:40:32.387Z,6.59
2018-03-11T23:43:00.115Z,6.54
2018-03-11T23:45:27.682Z,6.51
2018-03-11T23:47:55.268Z,6.51
2018-03-11T23:50:22.893Z,6.45
2018-03-11T23:52:50.559Z,6.48
2018-03-11T23:55:18.119Z,6.53
2018-03-11T23:57:45.706Z,6.51
